sensor_id;sensor_type;location;lat;lon;timestamp;temperature;humidity
76996;DHT22;65929;49.062;10.338;2023-04-03T00:00:58;1.90;72.40
76996;DHT22;65929;49.062;10.338;2023-04-03T00:01:59;1.90;72.60
76996;DHT22;65929;49.062;10.338;2023-04-03T00:03:00;1.90;72.20
76996;DHT22;65929;49.062;10.338;2023-04-03T00:04:01;1.90;72.30
76996;DHT22;65929;49.062;10.338;2023-04-03T00:05:02;1.90;72.40
76996;DHT22;65929;49.062;10.338;2023-04-03T00:06:03;1.90;71.90
76996;DHT22;65929;49.062;10.338;2023-04-03T00:07:06;1.90;71.80
76996;DHT22;65929;49.062;10.338;2023-04-03T00:08:07;1.90;71.70
76996;DHT22;65929;49.062;10.338;2023-04-03T00:09:10;1.90;71.70
76996;DHT22;65929;49.062;10.338;2023-04-03T00:10:11;1.90;71.90
76996;DHT22;65929;49.062;10.338;2023-04-03T00:11:12;1.90;71.90
76996;DHT22;65929;49.062;10.338;2023-04-03T00:12:13;1.90;72.10
76996;DHT22;65929;49.062;10.338;2023-04-03T00:13:15;1.90;72.40
76996;DHT22;65929;49.062;10.338;2023-04-03T00:14:17;1.90;72.30
76996;DHT22;65929;49.062;10.338;2023-04-03T00:15:18;1.90;72.20
76996;DHT22;65929;49.062;10.338;2023-04-03T00:16:19;1.90;71.50
76996;DHT22;65929;49.062;10.338;2023-04-03T00:17:20;2.00;71.70
76996;DHT22;65929;49.062;10.338;2023-04-03T00:18:21;1.90;71.80
76996;DHT22;65929;49.062;10.338;2023-04-03T00:19:23;2.00;71.50
76996;DHT22;65929;49.062;10.338;2023-04-03T00:20:24;2.00;71.70
76996;DHT22;65929;49.062;10.338;2023-04-03T00:21:25;2.00;71.80
76996;DHT22;65929;49.062;10.338;2023-04-03T00:22:26;2.00;71.50
76996;DHT22;65929;49.062;10.338;2023-04-03T00:23:29;1.90;71.60
76996;DHT22;65929;49.062;10.338;2023-04-03T00:24:30;1.90;71.60
76996;DHT22;65929;49.062;10.338;2023-04-03T00:25:31;2.00;71.70
76996;DHT22;65929;49.062;10.338;2023-04-03T00:26:32;1.90;72.00
76996;DHT22;65929;49.062;10.338;2023-04-03T00:27:35;1.90;72.00
76996;DHT22;65929;49.062;10.338;2023-04-03T00:28:36;1.90;72.00
76996;DHT22;65929;49.062;10.338;2023-04-03T00:29:38;1.90;72.40
76996;DHT22;65929;49.062;10.338;2023-04-03T00:30:39;1.90;72.30
76996;DHT22;65929;49.062;10.338;2023-04-03T00:31:40;1.90;72.40
76996;DHT22;65929;49.062;10.338;2023-04-03T00:32:41;1.90;72.20
76996;DHT22;65929;49.062;10.338;2023-04-03T00:33:42;1.90;72.20
76996;DHT22;65929;49.062;10.338;2023-04-03T00:34:43;1.90;72.10
76996;DHT22;65929;49.062;10.338;2023-04-03T00:35:44;1.90;72.00
76996;DHT22;65929;49.062;10.338;2023-04-03T00:36:45;1.90;71.90
76996;DHT22;65929;49.062;10.338;2023-04-03T00:37:47;1.90;72.20
76996;DHT22;65929;49.062;10.338;2023-04-03T00:38:48;1.90;72.10
76996;DHT22;65929;49.062;10.338;2023-04-03T00:39:49;1.90;72.10
76996;DHT22;65929;49.062;10.338;2023-04-03T00:40:50;1.90;72.40
76996;DHT22;65929;49.062;10.338;2023-04-03T00:41:51;1.90;72.30
76996;DHT22;65929;49.062;10.338;2023-04-03T00:42:56;1.90;72.00
76996;DHT22;65929;49.062;10.338;2023-04-03T00:43:57;1.90;71.60
76996;DHT22;65929;49.062;10.338;2023-04-03T00:45:34;1.90;71.20
76996;DHT22;65929;49.062;10.338;2023-04-03T00:46:35;1.90;71.20
76996;DHT22;65929;49.062;10.338;2023-04-03T00:47:36;1.90;71.10
76996;DHT22;65929;49.062;10.338;2023-04-03T00:48:40;1.90;71.50
76996;DHT22;65929;49.062;10.338;2023-04-03T00:49:43;1.90;71.50
76996;DHT22;65929;49.062;10.338;2023-04-03T00:50:45;1.90;71.60
76996;DHT22;65929;49.062;10.338;2023-04-03T00:51:47;1.90;72.10
76996;DHT22;65929;49.062;10.338;2023-04-03T00:52:48;1.90;71.80
76996;DHT22;65929;49.062;10.338;2023-04-03T00:53:53;1.90;71.80
76996;DHT22;65929;49.062;10.338;2023-04-03T00:54:59;1.90;71.70
76996;DHT22;65929;49.062;10.338;2023-04-03T00:56:02;1.90;71.80
76996;DHT22;65929;49.062;10.338;2023-04-03T00:57:06;1.90;71.90
76996;DHT22;65929;49.062;10.338;2023-04-03T00:58:08;1.90;71.70
76996;DHT22;65929;49.062;10.338;2023-04-03T00:59:12;1.90;71.70
76996;DHT22;65929;49.062;10.338;2023-04-03T01:00:19;1.90;71.90
76996;DHT22;65929;49.062;10.338;2023-04-03T01:01:23;1.90;71.80
76996;DHT22;65929;49.062;10.338;2023-04-03T01:02:25;1.80;72.00
76996;DHT22;65929;49.062;10.338;2023-04-03T01:03:26;1.80;71.90
76996;DHT22;65929;49.062;10.338;2023-04-03T01:04:28;1.80;71.80
76996;DHT22;65929;49.062;10.338;2023-04-03T01:05:29;1.90;71.60
76996;DHT22;65929;49.062;10.338;2023-04-03T01:06:33;1.80;71.70
76996;DHT22;65929;49.062;10.338;2023-04-03T01:07:35;1.80;72.10
76996;DHT22;65929;49.062;10.338;2023-04-03T01:08:38;1.80;71.80
76996;DHT22;65929;49.062;10.338;2023-04-03T01:09:53;1.80;71.40
76996;DHT22;65929;49.062;10.338;2023-04-03T01:10:57;1.80;71.70
76996;DHT22;65929;49.062;10.338;2023-04-03T01:12:13;1.80;70.90
76996;DHT22;65929;49.062;10.338;2023-04-03T01:13:19;1.80;71.50
76996;DHT22;65929;49.062;10.338;2023-04-03T01:14:21;1.80;70.90
76996;DHT22;65929;49.062;10.338;2023-04-03T01:15:24;1.80;70.60
76996;DHT22;65929;49.062;10.338;2023-04-03T01:16:26;1.80;71.00
76996;DHT22;65929;49.062;10.338;2023-04-03T01:17:31;1.80;70.90
76996;DHT22;65929;49.062;10.338;2023-04-03T01:18:32;1.80;71.20
76996;DHT22;65929;49.062;10.338;2023-04-03T01:19:36;1.70;71.50
76996;DHT22;65929;49.062;10.338;2023-04-03T01:22:44;1.70;72.20
76996;DHT22;65929;49.062;10.338;2023-04-03T01:24:01;1.70;72.20
76996;DHT22;65929;49.062;10.338;2023-04-03T01:25:06;1.70;72.40
76996;DHT22;65929;49.062;10.338;2023-04-03T01:26:08;1.70;72.20
76996;DHT22;65929;49.062;10.338;2023-04-03T01:27:10;1.70;72.40
76996;DHT22;65929;49.062;10.338;2023-04-03T01:28:14;1.70;72.30
76996;DHT22;65929;49.062;10.338;2023-04-03T01:29:16;1.70;72.30
76996;DHT22;65929;49.062;10.338;2023-04-03T01:30:19;1.70;72.30
76996;DHT22;65929;49.062;10.338;2023-04-03T01:31:23;1.70;72.20
76996;DHT22;65929;49.062;10.338;2023-04-03T01:32:27;1.70;72.20
76996;DHT22;65929;49.062;10.338;2023-04-03T01:33:28;1.70;72.20
76996;DHT22;65929;49.062;10.338;2023-04-03T01:34:29;1.70;72.50
76996;DHT22;65929;49.062;10.338;2023-04-03T01:35:30;1.70;72.30
76996;DHT22;65929;49.062;10.338;2023-04-03T01:36:32;1.70;72.30
76996;DHT22;65929;49.062;10.338;2023-04-03T01:37:33;1.70;72.20
76996;DHT22;65929;49.062;10.338;2023-04-03T01:38:34;1.70;72.50
76996;DHT22;65929;49.062;10.338;2023-04-03T01:39:35;1.70;72.70
76996;DHT22;65929;49.062;10.338;2023-04-03T01:40:36;1.70;72.20
76996;DHT22;65929;49.062;10.338;2023-04-03T01:41:38;1.70;72.10
76996;DHT22;65929;49.062;10.338;2023-04-03T01:42:39;1.70;72.10
76996;DHT22;65929;49.062;10.338;2023-04-03T01:43:40;1.70;72.20
76996;DHT22;65929;49.062;10.338;2023-04-03T01:44:41;1.70;72.00
76996;DHT22;65929;49.062;10.338;2023-04-03T01:45:42;1.70;72.20
76996;DHT22;65929;49.062;10.338;2023-04-03T01:46:43;1.70;72.10
76996;DHT22;65929;49.062;10.338;2023-04-03T01:47:45;1.70;72.00
76996;DHT22;65929;49.062;10.338;2023-04-03T01:48:46;1.70;72.00
76996;DHT22;65929;49.062;10.338;2023-04-03T01:49:47;1.70;72.10
76996;DHT22;65929;49.062;10.338;2023-04-03T01:50:48;1.70;72.20
76996;DHT22;65929;49.062;10.338;2023-04-03T01:51:49;1.70;72.60
76996;DHT22;65929;49.062;10.338;2023-04-03T01:52:50;1.70;72.20
76996;DHT22;65929;49.062;10.338;2023-04-03T01:53:51;1.70;71.70
76996;DHT22;65929;49.062;10.338;2023-04-03T01:54:52;1.70;71.60
76996;DHT22;65929;49.062;10.338;2023-04-03T01:55:53;1.70;71.70
76996;DHT22;65929;49.062;10.338;2023-04-03T01:56:54;1.60;71.90
76996;DHT22;65929;49.062;10.338;2023-04-03T01:57:55;1.60;71.50
76996;DHT22;65929;49.062;10.338;2023-04-03T01:58:56;1.60;71.80
76996;DHT22;65929;49.062;10.338;2023-04-03T01:59:57;1.60;72.10
76996;DHT22;65929;49.062;10.338;2023-04-03T02:00:57;1.60;71.90
76996;DHT22;65929;49.062;10.338;2023-04-03T02:01:58;1.60;72.50
76996;DHT22;65929;49.062;10.338;2023-04-03T02:03:01;1.50;72.10
76996;DHT22;65929;49.062;10.338;2023-04-03T02:04:02;1.50;72.00
76996;DHT22;65929;49.062;10.338;2023-04-03T02:05:03;1.50;72.00
76996;DHT22;65929;49.062;10.338;2023-04-03T02:06:05;1.50;72.30
76996;DHT22;65929;49.062;10.338;2023-04-03T02:07:06;1.40;71.90
76996;DHT22;65929;49.062;10.338;2023-04-03T02:08:07;1.40;72.20
76996;DHT22;65929;49.062;10.338;2023-04-03T02:09:08;1.40;72.40
76996;DHT22;65929;49.062;10.338;2023-04-03T02:10:09;1.40;72.60
76996;DHT22;65929;49.062;10.338;2023-04-03T02:11:10;1.40;72.50
76996;DHT22;65929;49.062;10.338;2023-04-03T02:12:11;1.30;72.70
76996;DHT22;65929;49.062;10.338;2023-04-03T02:13:12;1.30;73.00
76996;DHT22;65929;49.062;10.338;2023-04-03T02:14:13;1.30;72.70
76996;DHT22;65929;49.062;10.338;2023-04-03T02:15:14;1.30;73.30
76996;DHT22;65929;49.062;10.338;2023-04-03T02:16:15;1.30;72.70
76996;DHT22;65929;49.062;10.338;2023-04-03T02:17:16;1.30;72.50
76996;DHT22;65929;49.062;10.338;2023-04-03T02:18:19;1.30;72.50
76996;DHT22;65929;49.062;10.338;2023-04-03T02:19:20;1.30;72.30
76996;DHT22;65929;49.062;10.338;2023-04-03T02:20:21;1.30;72.50
76996;DHT22;65929;49.062;10.338;2023-04-03T02:21:22;1.30;73.00
76996;DHT22;65929;49.062;10.338;2023-04-03T02:22:23;1.30;72.70
76996;DHT22;65929;49.062;10.338;2023-04-03T02:23:24;1.20;73.00
76996;DHT22;65929;49.062;10.338;2023-04-03T02:24:25;1.20;72.80
76996;DHT22;65929;49.062;10.338;2023-04-03T02:25:26;1.20;73.00
76996;DHT22;65929;49.062;10.338;2023-04-03T02:26:27;1.20;72.60
76996;DHT22;65929;49.062;10.338;2023-04-03T02:27:28;1.30;72.70
76996;DHT22;65929;49.062;10.338;2023-04-03T02:28:29;1.30;72.70
76996;DHT22;65929;49.062;10.338;2023-04-03T02:29:30;1.30;73.00
76996;DHT22;65929;49.062;10.338;2023-04-03T02:30:31;1.30;73.30
76996;DHT22;65929;49.062;10.338;2023-04-03T02:31:32;1.30;73.30
76996;DHT22;65929;49.062;10.338;2023-04-03T02:32:33;1.30;73.20
76996;DHT22;65929;49.062;10.338;2023-04-03T02:33:36;1.30;73.40
76996;DHT22;65929;49.062;10.338;2023-04-03T02:34:37;1.20;73.20
76996;DHT22;65929;49.062;10.338;2023-04-03T02:35:39;1.20;73.50
76996;DHT22;65929;49.062;10.338;2023-04-03T02:36:40;1.20;73.60
76996;DHT22;65929;49.062;10.338;2023-04-03T02:37:41;1.20;73.30
76996;DHT22;65929;49.062;10.338;2023-04-03T02:38:42;1.20;73.40
76996;DHT22;65929;49.062;10.338;2023-04-03T02:39:43;1.20;73.60
76996;DHT22;65929;49.062;10.338;2023-04-03T02:40:44;1.20;73.80
76996;DHT22;65929;49.062;10.338;2023-04-03T02:41:45;1.20;73.50
76996;DHT22;65929;49.062;10.338;2023-04-03T02:42:46;1.20;73.40
76996;DHT22;65929;49.062;10.338;2023-04-03T02:43:47;1.20;73.60
76996;DHT22;65929;49.062;10.338;2023-04-03T02:44:48;1.20;73.50
76996;DHT22;65929;49.062;10.338;2023-04-03T02:45:49;1.20;73.30
76996;DHT22;65929;49.062;10.338;2023-04-03T02:46:50;1.20;73.20
76996;DHT22;65929;49.062;10.338;2023-04-03T02:47:51;1.20;73.50
76996;DHT22;65929;49.062;10.338;2023-04-03T02:48:53;1.20;73.50
76996;DHT22;65929;49.062;10.338;2023-04-03T02:49:54;1.20;73.50
76996;DHT22;65929;49.062;10.338;2023-04-03T02:50:55;1.20;73.60
76996;DHT22;65929;49.062;10.338;2023-04-03T02:51:56;1.20;73.60
76996;DHT22;65929;49.062;10.338;2023-04-03T02:52:57;1.20;74.00
76996;DHT22;65929;49.062;10.338;2023-04-03T02:53:57;1.20;73.90
76996;DHT22;65929;49.062;10.338;2023-04-03T02:54:58;1.20;73.80
76996;DHT22;65929;49.062;10.338;2023-04-03T02:55:59;1.20;74.00
76996;DHT22;65929;49.062;10.338;2023-04-03T02:57:00;1.20;74.00
76996;DHT22;65929;49.062;10.338;2023-04-03T02:58:01;1.20;73.40
76996;DHT22;65929;49.062;10.338;2023-04-03T02:59:04;1.20;73.60
76996;DHT22;65929;49.062;10.338;2023-04-03T03:00:07;1.20;73.50
76996;DHT22;65929;49.062;10.338;2023-04-03T03:01:08;1.20;73.00
76996;DHT22;65929;49.062;10.338;2023-04-03T03:02:09;1.20;73.40
76996;DHT22;65929;49.062;10.338;2023-04-03T03:03:10;1.20;73.50
76996;DHT22;65929;49.062;10.338;2023-04-03T03:04:12;1.20;73.70
76996;DHT22;65929;49.062;10.338;2023-04-03T03:05:13;1.20;73.50
76996;DHT22;65929;49.062;10.338;2023-04-03T03:06:16;1.20;73.20
76996;DHT22;65929;49.062;10.338;2023-04-03T03:07:17;1.20;73.40
76996;DHT22;65929;49.062;10.338;2023-04-03T03:08:18;1.20;73.60
76996;DHT22;65929;49.062;10.338;2023-04-03T03:09:20;1.20;73.60
76996;DHT22;65929;49.062;10.338;2023-04-03T03:10:22;1.20;73.40
76996;DHT22;65929;49.062;10.338;2023-04-03T03:11:23;1.20;73.30
76996;DHT22;65929;49.062;10.338;2023-04-03T03:12:24;1.20;73.10
76996;DHT22;65929;49.062;10.338;2023-04-03T03:13:25;1.20;72.70
76996;DHT22;65929;49.062;10.338;2023-04-03T03:14:26;1.20;72.90
76996;DHT22;65929;49.062;10.338;2023-04-03T03:15:27;1.20;73.00
76996;DHT22;65929;49.062;10.338;2023-04-03T03:16:28;1.20;72.90
76996;DHT22;65929;49.062;10.338;2023-04-03T03:17:29;1.10;73.20
76996;DHT22;65929;49.062;10.338;2023-04-03T03:18:30;1.20;73.30
76996;DHT22;65929;49.062;10.338;2023-04-03T03:19:32;1.10;73.30
76996;DHT22;65929;49.062;10.338;2023-04-03T03:20:33;1.10;73.20
76996;DHT22;65929;49.062;10.338;2023-04-03T03:21:34;1.10;73.60
76996;DHT22;65929;49.062;10.338;2023-04-03T03:22:35;1.10;73.60
76996;DHT22;65929;49.062;10.338;2023-04-03T03:23:36;1.10;73.30
76996;DHT22;65929;49.062;10.338;2023-04-03T03:24:38;1.10;73.00
76996;DHT22;65929;49.062;10.338;2023-04-03T03:25:40;1.10;72.90
76996;DHT22;65929;49.062;10.338;2023-04-03T03:26:42;1.10;73.10
76996;DHT22;65929;49.062;10.338;2023-04-03T03:27:43;1.10;73.30
76996;DHT22;65929;49.062;10.338;2023-04-03T03:28:44;1.10;73.20
76996;DHT22;65929;49.062;10.338;2023-04-03T03:29:45;1.10;73.30
76996;DHT22;65929;49.062;10.338;2023-04-03T03:30:46;1.10;73.20
76996;DHT22;65929;49.062;10.338;2023-04-03T03:31:49;1.10;72.90
76996;DHT22;65929;49.062;10.338;2023-04-03T03:32:51;1.10;73.30
76996;DHT22;65929;49.062;10.338;2023-04-03T03:33:51;1.10;73.30
76996;DHT22;65929;49.062;10.338;2023-04-03T03:34:54;1.10;73.00
76996;DHT22;65929;49.062;10.338;2023-04-03T03:35:55;1.10;73.10
76996;DHT22;65929;49.062;10.338;2023-04-03T03:36:56;1.10;73.20
76996;DHT22;65929;49.062;10.338;2023-04-03T03:37:57;1.10;73.30
76996;DHT22;65929;49.062;10.338;2023-04-03T03:38:58;1.00;73.30
76996;DHT22;65929;49.062;10.338;2023-04-03T03:39:58;1.00;73.20
76996;DHT22;65929;49.062;10.338;2023-04-03T03:40:59;1.00;73.20
76996;DHT22;65929;49.062;10.338;2023-04-03T03:42:00;1.00;73.30
76996;DHT22;65929;49.062;10.338;2023-04-03T03:43:01;1.00;73.40
76996;DHT22;65929;49.062;10.338;2023-04-03T03:44:02;1.00;73.30
76996;DHT22;65929;49.062;10.338;2023-04-03T03:45:04;1.00;73.20
76996;DHT22;65929;49.062;10.338;2023-04-03T03:46:05;1.00;73.40
76996;DHT22;65929;49.062;10.338;2023-04-03T03:47:06;1.00;73.60
76996;DHT22;65929;49.062;10.338;2023-04-03T03:48:09;1.00;73.90
76996;DHT22;65929;49.062;10.338;2023-04-03T03:49:10;1.00;73.60
76996;DHT22;65929;49.062;10.338;2023-04-03T03:50:13;1.00;73.90
76996;DHT22;65929;49.062;10.338;2023-04-03T03:51:14;1.00;73.80
76996;DHT22;65929;49.062;10.338;2023-04-03T03:52:15;1.00;73.70
76996;DHT22;65929;49.062;10.338;2023-04-03T03:53:16;1.00;73.90
76996;DHT22;65929;49.062;10.338;2023-04-03T03:54:17;1.00;74.10
76996;DHT22;65929;49.062;10.338;2023-04-03T03:55:18;1.00;73.80
76996;DHT22;65929;49.062;10.338;2023-04-03T03:56:19;1.00;73.70
76996;DHT22;65929;49.062;10.338;2023-04-03T03:57:21;1.00;73.80
76996;DHT22;65929;49.062;10.338;2023-04-03T03:58:21;0.90;73.80
76996;DHT22;65929;49.062;10.338;2023-04-03T03:59:22;0.90;74.10
76996;DHT22;65929;49.062;10.338;2023-04-03T04:00:23;0.90;74.10
76996;DHT22;65929;49.062;10.338;2023-04-03T04:01:24;0.80;74.20
76996;DHT22;65929;49.062;10.338;2023-04-03T04:02:25;0.80;74.20
76996;DHT22;65929;49.062;10.338;2023-04-03T04:03:26;0.80;74.60
76996;DHT22;65929;49.062;10.338;2023-04-03T04:04:27;0.80;74.50
76996;DHT22;65929;49.062;10.338;2023-04-03T04:05:30;0.80;74.60
76996;DHT22;65929;49.062;10.338;2023-04-03T04:06:31;0.70;74.80
76996;DHT22;65929;49.062;10.338;2023-04-03T04:07:32;0.60;75.00
76996;DHT22;65929;49.062;10.338;2023-04-03T04:08:33;0.60;75.00
76996;DHT22;65929;49.062;10.338;2023-04-03T04:09:34;0.60;75.00
76996;DHT22;65929;49.062;10.338;2023-04-03T04:10:36;0.60;75.30
76996;DHT22;65929;49.062;10.338;2023-04-03T04:11:39;0.60;75.40
76996;DHT22;65929;49.062;10.338;2023-04-03T04:12:40;0.60;75.60
76996;DHT22;65929;49.062;10.338;2023-04-03T04:13:41;0.50;75.80
76996;DHT22;65929;49.062;10.338;2023-04-03T04:14:42;0.50;75.80
76996;DHT22;65929;49.062;10.338;2023-04-03T04:15:47;0.50;75.80
76996;DHT22;65929;49.062;10.338;2023-04-03T04:16:48;0.50;75.80
76996;DHT22;65929;49.062;10.338;2023-04-03T04:17:49;0.40;75.90
76996;DHT22;65929;49.062;10.338;2023-04-03T04:18:50;0.40;76.00
76996;DHT22;65929;49.062;10.338;2023-04-03T04:19:51;0.40;76.00
76996;DHT22;65929;49.062;10.338;2023-04-03T04:20:53;0.40;76.00
76996;DHT22;65929;49.062;10.338;2023-04-03T04:21:54;0.40;76.10
76996;DHT22;65929;49.062;10.338;2023-04-03T04:22:55;0.40;76.40
76996;DHT22;65929;49.062;10.338;2023-04-03T04:23:56;0.40;76.50
76996;DHT22;65929;49.062;10.338;2023-04-03T04:24:57;0.30;76.40
76996;DHT22;65929;49.062;10.338;2023-04-03T04:25:58;0.30;76.50
76996;DHT22;65929;49.062;10.338;2023-04-03T04:26:59;0.30;76.70
76996;DHT22;65929;49.062;10.338;2023-04-03T04:28:00;0.30;76.70
76996;DHT22;65929;49.062;10.338;2023-04-03T04:29:01;0.30;76.70
76996;DHT22;65929;49.062;10.338;2023-04-03T04:30:02;0.20;76.80
76996;DHT22;65929;49.062;10.338;2023-04-03T04:31:03;0.20;77.10
76996;DHT22;65929;49.062;10.338;2023-04-03T04:32:05;0.20;77.20
76996;DHT22;65929;49.062;10.338;2023-04-03T04:33:06;0.20;77.30
76996;DHT22;65929;49.062;10.338;2023-04-03T04:34:07;0.20;77.50
76996;DHT22;65929;49.062;10.338;2023-04-03T04:35:09;0.20;77.70
76996;DHT22;65929;49.062;10.338;2023-04-03T04:36:11;0.20;77.60
76996;DHT22;65929;49.062;10.338;2023-04-03T04:37:12;0.20;77.70
76996;DHT22;65929;49.062;10.338;2023-04-03T04:38:13;0.20;77.80
76996;DHT22;65929;49.062;10.338;2023-04-03T04:39:14;0.20;78.00
76996;DHT22;65929;49.062;10.338;2023-04-03T04:40:15;0.20;78.00
76996;DHT22;65929;49.062;10.338;2023-04-03T04:41:16;0.20;78.00
76996;DHT22;65929;49.062;10.338;2023-04-03T04:42:18;0.20;78.00
76996;DHT22;65929;49.062;10.338;2023-04-03T04:43:19;0.20;78.10
76996;DHT22;65929;49.062;10.338;2023-04-03T04:44:20;0.20;78.00
76996;DHT22;65929;49.062;10.338;2023-04-03T04:45:21;0.20;78.10
76996;DHT22;65929;49.062;10.338;2023-04-03T04:46:22;0.20;78.30
76996;DHT22;65929;49.062;10.338;2023-04-03T04:47:23;0.20;78.50
76996;DHT22;65929;49.062;10.338;2023-04-03T04:48:24;0.20;78.40
76996;DHT22;65929;49.062;10.338;2023-04-03T04:49:25;0.20;78.50
76996;DHT22;65929;49.062;10.338;2023-04-03T04:50:25;0.20;78.60
76996;DHT22;65929;49.062;10.338;2023-04-03T04:51:28;0.20;78.50
76996;DHT22;65929;49.062;10.338;2023-04-03T04:52:29;0.20;78.50
76996;DHT22;65929;49.062;10.338;2023-04-03T04:53:30;0.20;78.60
76996;DHT22;65929;49.062;10.338;2023-04-03T04:54:31;0.20;78.60
76996;DHT22;65929;49.062;10.338;2023-04-03T04:55:31;0.20;78.70
76996;DHT22;65929;49.062;10.338;2023-04-03T04:56:32;0.20;78.70
76996;DHT22;65929;49.062;10.338;2023-04-03T04:57:33;0.20;78.60
76996;DHT22;65929;49.062;10.338;2023-04-03T04:58:35;0.20;78.80
76996;DHT22;65929;49.062;10.338;2023-04-03T04:59:36;0.20;78.90
76996;DHT22;65929;49.062;10.338;2023-04-03T05:00:37;0.20;78.80
76996;DHT22;65929;49.062;10.338;2023-04-03T05:01:38;0.20;78.80
76996;DHT22;65929;49.062;10.338;2023-04-03T05:02:39;0.20;78.90
76996;DHT22;65929;49.062;10.338;2023-04-03T05:03:40;0.20;79.00
76996;DHT22;65929;49.062;10.338;2023-04-03T05:04:41;0.20;79.00
76996;DHT22;65929;49.062;10.338;2023-04-03T05:05:42;0.20;78.90
76996;DHT22;65929;49.062;10.338;2023-04-03T05:06:44;0.10;79.00
76996;DHT22;65929;49.062;10.338;2023-04-03T05:07:45;0.10;79.10
76996;DHT22;65929;49.062;10.338;2023-04-03T05:08:46;0.10;79.30
76996;DHT22;65929;49.062;10.338;2023-04-03T05:09:47;0.10;79.40
76996;DHT22;65929;49.062;10.338;2023-04-03T05:10:48;0.10;79.40
76996;DHT22;65929;49.062;10.338;2023-04-03T05:11:49;0.20;79.40
76996;DHT22;65929;49.062;10.338;2023-04-03T05:12:51;0.20;79.20
76996;DHT22;65929;49.062;10.338;2023-04-03T05:13:52;0.20;79.20
76996;DHT22;65929;49.062;10.338;2023-04-03T05:14:53;0.20;79.60
76996;DHT22;65929;49.062;10.338;2023-04-03T05:15:53;0.20;79.40
76996;DHT22;65929;49.062;10.338;2023-04-03T05:16:54;0.30;79.40
76996;DHT22;65929;49.062;10.338;2023-04-03T05:17:55;0.30;79.40
76996;DHT22;65929;49.062;10.338;2023-04-03T05:18:56;0.30;79.20
76996;DHT22;65929;49.062;10.338;2023-04-03T05:19:57;0.30;79.30
76996;DHT22;65929;49.062;10.338;2023-04-03T05:20:58;0.30;79.30
76996;DHT22;65929;49.062;10.338;2023-04-03T05:22:00;0.40;79.30
76996;DHT22;65929;49.062;10.338;2023-04-03T05:23:01;0.40;79.20
76996;DHT22;65929;49.062;10.338;2023-04-03T05:24:02;0.40;79.10
76996;DHT22;65929;49.062;10.338;2023-04-03T05:25:04;0.40;79.10
76996;DHT22;65929;49.062;10.338;2023-04-03T05:26:06;0.40;79.20
76996;DHT22;65929;49.062;10.338;2023-04-03T05:27:07;0.40;79.30
76996;DHT22;65929;49.062;10.338;2023-04-03T05:28:08;0.40;79.50
76996;DHT22;65929;49.062;10.338;2023-04-03T05:29:09;0.40;79.50
76996;DHT22;65929;49.062;10.338;2023-04-03T05:30:11;0.50;79.10
76996;DHT22;65929;49.062;10.338;2023-04-03T05:31:13;0.50;79.00
76996;DHT22;65929;49.062;10.338;2023-04-03T05:32:14;0.50;79.20
76996;DHT22;65929;49.062;10.338;2023-04-03T05:33:15;0.50;79.00
76996;DHT22;65929;49.062;10.338;2023-04-03T05:34:16;0.50;78.90
76996;DHT22;65929;49.062;10.338;2023-04-03T05:35:17;0.60;79.00
76996;DHT22;65929;49.062;10.338;2023-04-03T05:36:18;0.60;78.90
76996;DHT22;65929;49.062;10.338;2023-04-03T05:37:21;0.60;79.10
76996;DHT22;65929;49.062;10.338;2023-04-03T05:38:22;0.60;79.00
76996;DHT22;65929;49.062;10.338;2023-04-03T05:39:23;0.60;79.00
76996;DHT22;65929;49.062;10.338;2023-04-03T05:40:24;0.60;78.90
76996;DHT22;65929;49.062;10.338;2023-04-03T05:41:26;0.60;78.90
76996;DHT22;65929;49.062;10.338;2023-04-03T05:42:27;0.70;78.80
76996;DHT22;65929;49.062;10.338;2023-04-03T05:43:28;0.70;78.90
76996;DHT22;65929;49.062;10.338;2023-04-03T05:44:29;0.70;78.70
76996;DHT22;65929;49.062;10.338;2023-04-03T05:45:30;0.80;78.90
76996;DHT22;65929;49.062;10.338;2023-04-03T05:46:31;0.80;78.70
76996;DHT22;65929;49.062;10.338;2023-04-03T05:47:32;0.80;78.90
76996;DHT22;65929;49.062;10.338;2023-04-03T05:48:33;0.80;79.00
76996;DHT22;65929;49.062;10.338;2023-04-03T05:49:34;0.80;78.90
76996;DHT22;65929;49.062;10.338;2023-04-03T05:50:35;0.80;78.70
76996;DHT22;65929;49.062;10.338;2023-04-03T05:51:41;0.80;78.60
76996;DHT22;65929;49.062;10.338;2023-04-03T05:52:48;0.90;78.60
76996;DHT22;65929;49.062;10.338;2023-04-03T05:53:53;0.90;78.60
76996;DHT22;65929;49.062;10.338;2023-04-03T05:54:56;0.90;78.70
76996;DHT22;65929;49.062;10.338;2023-04-03T05:55:57;1.00;78.70
76996;DHT22;65929;49.062;10.338;2023-04-03T05:56:58;1.00;78.70
76996;DHT22;65929;49.062;10.338;2023-04-03T05:57:59;1.00;78.50
76996;DHT22;65929;49.062;10.338;2023-04-03T05:59:00;1.00;78.60
76996;DHT22;65929;49.062;10.338;2023-04-03T06:00:02;1.00;78.30
76996;DHT22;65929;49.062;10.338;2023-04-03T06:01:04;1.00;78.50
76996;DHT22;65929;49.062;10.338;2023-04-03T06:02:06;1.00;78.60
76996;DHT22;65929;49.062;10.338;2023-04-03T06:03:07;1.00;78.70
76996;DHT22;65929;49.062;10.338;2023-04-03T06:04:08;1.00;78.50
76996;DHT22;65929;49.062;10.338;2023-04-03T06:05:09;1.00;78.50
76996;DHT22;65929;49.062;10.338;2023-04-03T06:06:13;1.00;78.80
76996;DHT22;65929;49.062;10.338;2023-04-03T06:07:16;1.10;78.90
76996;DHT22;65929;49.062;10.338;2023-04-03T06:08:19;1.10;78.60
76996;DHT22;65929;49.062;10.338;2023-04-03T06:09:23;1.10;78.60
76996;DHT22;65929;49.062;10.338;2023-04-03T06:10:24;1.10;78.60
76996;DHT22;65929;49.062;10.338;2023-04-03T06:11:25;1.10;78.70
76996;DHT22;65929;49.062;10.338;2023-04-03T06:12:26;1.10;78.40
76996;DHT22;65929;49.062;10.338;2023-04-03T06:13:29;1.20;78.80
76996;DHT22;65929;49.062;10.338;2023-04-03T06:14:30;1.20;78.60
76996;DHT22;65929;49.062;10.338;2023-04-03T06:15:31;1.20;78.50
76996;DHT22;65929;49.062;10.338;2023-04-03T06:16:32;1.30;78.80
76996;DHT22;65929;49.062;10.338;2023-04-03T06:17:33;1.30;78.60
76996;DHT22;65929;49.062;10.338;2023-04-03T06:18:34;1.30;78.40
76996;DHT22;65929;49.062;10.338;2023-04-03T06:19:35;1.40;78.50
76996;DHT22;65929;49.062;10.338;2023-04-03T06:20:36;1.40;78.40
76996;DHT22;65929;49.062;10.338;2023-04-03T06:21:38;1.40;78.30
76996;DHT22;65929;49.062;10.338;2023-04-03T06:22:39;1.40;78.50
76996;DHT22;65929;49.062;10.338;2023-04-03T06:23:42;1.40;78.40
76996;DHT22;65929;49.062;10.338;2023-04-03T06:24:43;1.50;78.50
76996;DHT22;65929;49.062;10.338;2023-04-03T06:25:44;1.50;77.80
76996;DHT22;65929;49.062;10.338;2023-04-03T06:26:45;1.50;78.00
76996;DHT22;65929;49.062;10.338;2023-04-03T06:27:46;1.60;77.80
76996;DHT22;65929;49.062;10.338;2023-04-03T06:28:47;1.60;78.00
76996;DHT22;65929;49.062;10.338;2023-04-03T06:29:48;1.60;77.70
76996;DHT22;65929;49.062;10.338;2023-04-03T06:30:49;1.70;77.50
76996;DHT22;65929;49.062;10.338;2023-04-03T06:31:51;1.70;77.50